Terminal Aerodrome Forecast
Issued by NWS Cleveland, OH

Home | Current Version | Previous Version | Graphics & Text | Print | Product List | Glossary On
Versions: 1 2 3 4 5 6 7 8 9 10 11 12 13 14 15 16 17 18 19 20 21 22 23 24
000
FTUS41 KCLE 281100
TAFMFD
TAF
KMFD 281140Z 2812/2912 00000KT 1/4SM FG OVC001
     FM281330 00000KT 2SM BR BKN010
     FM281430 02006KT P6SM BKN020
     FM281700 01006KT P6SM FEW030 BKN250
     FM282300 VRB03KT P6SM BKN250
     FM290900 12005KT P6SM BKN100=

USA.gov is the U.S. government's official web portal to all federal, state and local government web resources and services.